AZU2401 SBSG-SBKP
Flight info
| Callsign | AZU2401 |
|---|---|
| Flight time | 3h 0m |
| Altitude | 36000 |
| Route | SIKEL UZ21 IREKI UZ30 UBNED/N0448F380 UZ30 ENTIT |
| Aircraft | A320/M-SDE3FGHIRWY/LB1 |
Departure
| Time | 2026-05-08 13:31 |
|---|---|
| Airport | Rio Grande do Norte/São Gonçalo do Amarante–Governador Aluízio Alves International Airport (SBSG) |
Arrival
| Time | 2026-05-08 16:31 |
|---|---|
| Airport | Viracopos International Airport (SBKP) |
| Time | Latitude | Longitude | Altitude | Speed | Heading |
|---|---|---|---|---|---|
| 2026-05-08 13:09 | -5.76413 | -35.37385 | 274 ft | 0 kts | 9° |
| 2026-05-08 13:16 | -5.76430 | -35.37388 | 279 ft | 4 kts | 11° |
| 2026-05-08 13:16 | -5.76456 | -35.37394 | 280 ft | 4 kts | 18° |
| 2026-05-08 13:16 | -5.76481 | -35.37404 | 278 ft | 4 kts | 36° |
| 2026-05-08 13:16 | -5.76495 | -35.37422 | 281 ft | 3 kts | 94° |
| 2026-05-08 13:17 | -5.76495 | -35.37425 | 281 ft | 0 kts | 99° |
| 2026-05-08 13:22 | -5.76496 | -35.37416 | 282 ft | 5 kts | 99° |
| 2026-05-08 13:22 | -5.76509 | -35.37344 | 274 ft | 9 kts | 99° |
| 2026-05-08 13:23 | -5.76518 | -35.37284 | 274 ft | 10 kts | 101° |
| 2026-05-08 13:23 | -5.76582 | -35.37237 | 274 ft | 15 kts | 190° |
| 2026-05-08 13:23 | -5.76684 | -35.37267 | 275 ft | 15 kts | 217° |
| 2026-05-08 13:23 | -5.76691 | -35.37360 | 273 ft | 14 kts | 281° |
| 2026-05-08 13:24 | -5.76675 | -35.37450 | 273 ft | 12 kts | 279° |
| 2026-05-08 13:24 | -5.76662 | -35.37529 | 273 ft | 11 kts | 279° |
| 2026-05-08 13:24 | -5.76650 | -35.37600 | 273 ft | 10 kts | 279° |
| 2026-05-08 13:24 | -5.76640 | -35.37663 | 276 ft | 8 kts | 279° |
| 2026-05-08 13:25 | -5.76632 | -35.37718 | 273 ft | 7 kts | 279° |
| 2026-05-08 13:25 | -5.76624 | -35.37765 | 275 ft | 6 kts | 279° |
| 2026-05-08 13:25 | -5.76617 | -35.37807 | 273 ft | 6 kts | 280° |
| 2026-05-08 13:25 | -5.76611 | -35.37841 | 273 ft | 4 kts | 280° |
| 2026-05-08 13:26 | -5.76606 | -35.37868 | 273 ft | 3 kts | 280° |
| 2026-05-08 13:26 | -5.76603 | -35.37887 | 273 ft | 2 kts | 276° |
| 2026-05-08 13:26 | -5.76605 | -35.37921 | 273 ft | 7 kts | 260° |
| 2026-05-08 13:26 | -5.76646 | -35.37964 | 273 ft | 10 kts | 200° |
| 2026-05-08 13:27 | -5.76662 | -35.37968 | 273 ft | 0 kts | 191° |
| 2026-05-08 13:29 | -5.76705 | -35.37976 | 273 ft | 12 kts | 191° |
| 2026-05-08 13:29 | -5.76768 | -35.37960 | 273 ft | 9 kts | 103° |
| 2026-05-08 13:30 | -5.76769 | -35.37943 | 273 ft | 0 kts | 96° |
| 2026-05-08 13:30 | -5.76783 | -35.37851 | 273 ft | 47 kts | 99° |
| 2026-05-08 13:30 | -5.76876 | -35.37291 | 273 ft | 112 kts | 99° |
| 2026-05-08 13:30 | -5.77034 | -35.36337 | 276 ft | 162 kts | 99° |
| 2026-05-08 13:31 | -5.77232 | -35.35179 | 718 ft | 170 kts | 102° |
| 2026-05-08 13:31 | -5.77437 | -35.34007 | 1340 ft | 170 kts | 101° |
| 2026-05-08 13:31 | -5.77639 | -35.32813 | 1847 ft | 181 kts | 101° |
| 2026-05-08 13:31 | -5.77864 | -35.31487 | 2116 ft | 204 kts | 101° |
| 2026-05-08 13:32 | -5.78204 | -35.30014 | 2437 ft | 228 kts | 117° |
| 2026-05-08 13:32 | -5.79319 | -35.28834 | 2875 ft | 250 kts | 149° |
| 2026-05-08 13:32 | -5.80949 | -35.28118 | 3637 ft | 260 kts | 159° |
| 2026-05-08 13:32 | -5.82698 | -35.27578 | 4600 ft | 265 kts | 161° |
| 2026-05-08 13:33 | -5.84487 | -35.27054 | 5450 ft | 269 kts | 161° |
| 2026-05-08 13:33 | -5.86286 | -35.26490 | 6218 ft | 273 kts | 159° |
| 2026-05-08 13:33 | -5.88079 | -35.25878 | 6937 ft | 277 kts | 157° |
| 2026-05-08 13:33 | -5.89949 | -35.25343 | 7651 ft | 285 kts | 170° |
| 2026-05-08 13:34 | -5.91948 | -35.25469 | 8355 ft | 295 kts | 194° |
| 2026-05-08 13:34 | -5.93895 | -35.26208 | 9167 ft | 301 kts | 199° |
| 2026-05-08 13:34 | -5.95852 | -35.27015 | 10055 ft | 307 kts | 200° |
| 2026-05-08 13:34 | -5.97874 | -35.27862 | 10537 ft | 326 kts | 200° |
| 2026-05-08 13:35 | -6.00038 | -35.28769 | 10845 ft | 346 kts | 200° |
| 2026-05-08 13:35 | -6.02291 | -35.29716 | 11350 ft | 354 kts | 200° |
| 2026-05-08 13:35 | -6.04573 | -35.30675 | 11986 ft | 357 kts | 200° |
| 2026-05-08 13:35 | -6.06847 | -35.31632 | 12630 ft | 360 kts | 200° |
| 2026-05-08 13:36 | -6.09170 | -35.32611 | 13269 ft | 363 kts | 200° |
| 2026-05-08 13:36 | -6.11510 | -35.33595 | 13889 ft | 365 kts | 200° |
| 2026-05-08 13:36 | -6.13867 | -35.34583 | 14438 ft | 368 kts | 200° |
| 2026-05-08 13:36 | -6.16243 | -35.35576 | 15038 ft | 371 kts | 200° |
| 2026-05-08 13:37 | -6.18633 | -35.36576 | 15740 ft | 373 kts | 201° |
| 2026-05-08 13:37 | -6.21040 | -35.37587 | 16458 ft | 375 kts | 201° |
| 2026-05-08 13:37 | -6.23422 | -35.38588 | 17058 ft | 376 kts | 201° |
| 2026-05-08 13:37 | -6.25838 | -35.39602 | 17652 ft | 377 kts | 201° |
| 2026-05-08 13:38 | -6.28264 | -35.40620 | 18255 ft | 378 kts | 201° |
| 2026-05-08 13:38 | -6.30691 | -35.41636 | 18750 ft | 379 kts | 202° |
| 2026-05-08 13:38 | -6.33146 | -35.42665 | 19145 ft | 384 kts | 202° |
| 2026-05-08 13:38 | -6.35630 | -35.43703 | 19516 ft | 389 kts | 201° |
| 2026-05-08 13:39 | -6.38145 | -35.44756 | 19889 ft | 393 kts | 201° |
| 2026-05-08 13:39 | -6.40663 | -35.45810 | 20246 ft | 398 kts | 202° |
| 2026-05-08 13:39 | -6.43243 | -35.46891 | 20618 ft | 403 kts | 202° |
| 2026-05-08 13:39 | -6.45851 | -35.47982 | 20991 ft | 407 kts | 202° |
| 2026-05-08 13:40 | -6.48481 | -35.49082 | 21358 ft | 411 kts | 202° |
| 2026-05-08 13:40 | -6.51142 | -35.50194 | 21739 ft | 415 kts | 202° |
| 2026-05-08 13:40 | -6.53781 | -35.51298 | 22149 ft | 417 kts | 201° |
| 2026-05-08 13:40 | -6.56465 | -35.52423 | 22556 ft | 420 kts | 201° |
| 2026-05-08 13:41 | -6.59174 | -35.53560 | 22941 ft | 423 kts | 202° |
| 2026-05-08 13:41 | -6.61902 | -35.54706 | 23330 ft | 426 kts | 202° |
| 2026-05-08 13:41 | -6.64656 | -35.55862 | 23675 ft | 429 kts | 202° |
| 2026-05-08 13:41 | -6.67431 | -35.57025 | 24000 ft | 432 kts | 202° |
| 2026-05-08 13:42 | -6.70218 | -35.58192 | 24334 ft | 434 kts | 202° |
| 2026-05-08 13:42 | -6.73009 | -35.59363 | 24685 ft | 435 kts | 202° |
| 2026-05-08 13:42 | -6.75780 | -35.60527 | 25016 ft | 437 kts | 202° |
| 2026-05-08 13:42 | -6.78595 | -35.61709 | 25327 ft | 439 kts | 203° |
| 2026-05-08 13:43 | -6.81424 | -35.62897 | 25681 ft | 440 kts | 203° |
| 2026-05-08 13:43 | -6.84256 | -35.64087 | 26053 ft | 441 kts | 203° |
| 2026-05-08 13:43 | -6.87059 | -35.65267 | 26375 ft | 442 kts | 204° |
| 2026-05-08 13:43 | -6.89906 | -35.66466 | 26722 ft | 443 kts | 204° |
| 2026-05-08 13:44 | -6.92752 | -35.67662 | 27074 ft | 443 kts | 204° |
| 2026-05-08 13:44 | -6.95603 | -35.68858 | 27406 ft | 444 kts | 204° |
| 2026-05-08 13:44 | -6.98456 | -35.70056 | 27728 ft | 445 kts | 204° |
| 2026-05-08 13:44 | -7.01318 | -35.71258 | 28050 ft | 446 kts | 204° |
| 2026-05-08 13:45 | -7.04186 | -35.72461 | 28385 ft | 447 kts | 204° |
| 2026-05-08 13:45 | -7.07032 | -35.73655 | 28699 ft | 448 kts | 204° |
| 2026-05-08 13:45 | -7.09918 | -35.74867 | 29002 ft | 450 kts | 205° |
| 2026-05-08 13:45 | -7.12807 | -35.76085 | 29345 ft | 450 kts | 205° |
| 2026-05-08 13:46 | -7.15704 | -35.77308 | 29669 ft | 451 kts | 205° |
| 2026-05-08 13:46 | -7.18603 | -35.78531 | 29968 ft | 452 kts | 205° |
| 2026-05-08 13:46 | -7.21513 | -35.79757 | 30235 ft | 453 kts | 205° |
| 2026-05-08 13:46 | -7.24424 | -35.80983 | 30459 ft | 454 kts | 205° |
| 2026-05-08 13:47 | -7.27315 | -35.82196 | 30678 ft | 456 kts | 205° |
| 2026-05-08 13:47 | -7.30245 | -35.83424 | 30881 ft | 457 kts | 205° |
| 2026-05-08 13:47 | -7.33190 | -35.84657 | 31086 ft | 459 kts | 205° |
| 2026-05-08 13:47 | -7.36145 | -35.85899 | 31319 ft | 459 kts | 206° |
| 2026-05-08 13:48 | -7.39101 | -35.87145 | 31619 ft | 458 kts | 206° |
| 2026-05-08 13:48 | -7.42005 | -35.88372 | 31895 ft | 458 kts | 206° |
| 2026-05-08 13:48 | -7.44949 | -35.89617 | 32152 ft | 458 kts | 206° |
| 2026-05-08 13:48 | -7.47895 | -35.90859 | 32431 ft | 458 kts | 206° |
| 2026-05-08 13:49 | -7.50844 | -35.92101 | 32708 ft | 458 kts | 206° |
| 2026-05-08 13:49 | -7.53786 | -35.93339 | 32999 ft | 457 kts | 206° |
| 2026-05-08 13:49 | -7.56729 | -35.94574 | 33285 ft | 457 kts | 206° |
| 2026-05-08 13:49 | -7.59627 | -35.95790 | 33577 ft | 457 kts | 206° |
| 2026-05-08 13:50 | -7.62557 | -35.97024 | 33876 ft | 456 kts | 207° |
| 2026-05-08 13:50 | -7.65490 | -35.98265 | 34156 ft | 455 kts | 207° |
| 2026-05-08 13:50 | -7.68420 | -35.99504 | 34435 ft | 455 kts | 207° |
| 2026-05-08 13:50 | -7.71344 | -36.00738 | 34697 ft | 454 kts | 207° |
| 2026-05-08 13:51 | -7.74221 | -36.01950 | 34962 ft | 453 kts | 207° |
| 2026-05-08 13:51 | -7.77133 | -36.03175 | 35244 ft | 451 kts | 207° |
| 2026-05-08 13:51 | -7.80033 | -36.04397 | 35515 ft | 450 kts | 207° |
| 2026-05-08 13:51 | -7.82921 | -36.05614 | 35775 ft | 449 kts | 207° |
| 2026-05-08 13:52 | -7.85800 | -36.06830 | 35969 ft | 448 kts | 207° |
| 2026-05-08 13:52 | -7.88668 | -36.08043 | 36027 ft | 445 kts | 207° |
| 2026-05-08 13:52 | -7.94323 | -36.10431 | 36030 ft | 442 kts | 207° |
| 2026-05-08 13:53 | -8.00001 | -36.12829 | 36035 ft | 441 kts | 207° |
| 2026-05-08 13:53 | -8.05673 | -36.15219 | 36035 ft | 441 kts | 207° |
| 2026-05-08 13:54 | -8.11304 | -36.17595 | 36043 ft | 440 kts | 207° |
| 2026-05-08 13:54 | -8.16962 | -36.19991 | 36042 ft | 440 kts | 207° |
| 2026-05-08 13:55 | -8.22625 | -36.22387 | 36043 ft | 441 kts | 207° |
| 2026-05-08 13:56 | -8.31077 | -36.25960 | 36063 ft | 440 kts | 207° |
| 2026-05-08 13:56 | -8.36741 | -36.28356 | 36069 ft | 440 kts | 206° |
| 2026-05-08 13:57 | -8.42354 | -36.30730 | 36068 ft | 439 kts | 206° |
| 2026-05-08 13:57 | -8.47050 | -36.32717 | 36069 ft | 439 kts | 207° |
| 2026-05-08 13:58 | -8.53607 | -36.35502 | 36068 ft | 439 kts | 207° |
| 2026-05-08 13:58 | -8.58294 | -36.37488 | 36075 ft | 439 kts | 206° |
| 2026-05-08 13:59 | -8.63928 | -36.39873 | 36072 ft | 438 kts | 206° |
| 2026-05-08 13:59 | -8.69562 | -36.42265 | 36080 ft | 438 kts | 206° |
| 2026-05-08 14:00 | -8.75152 | -36.44633 | 36076 ft | 438 kts | 206° |
| 2026-05-08 14:00 | -8.80785 | -36.47011 | 36075 ft | 438 kts | 206° |
| 2026-05-08 14:01 | -8.86409 | -36.49395 | 36080 ft | 438 kts | 206° |
| 2026-05-08 14:01 | -8.91995 | -36.51775 | 36074 ft | 438 kts | 206° |
| 2026-05-08 14:02 | -8.97615 | -36.54169 | 36073 ft | 438 kts | 206° |
| 2026-05-08 14:02 | -9.03236 | -36.56553 | 36067 ft | 438 kts | 206° |
| 2026-05-08 14:03 | -9.08831 | -36.58925 | 36067 ft | 438 kts | 206° |
| 2026-05-08 14:03 | -9.14462 | -36.61314 | 36065 ft | 438 kts | 206° |
| 2026-05-08 14:04 | -9.20092 | -36.63711 | 36066 ft | 438 kts | 206° |
| 2026-05-08 14:04 | -9.25343 | -36.66708 | 36058 ft | 431 kts | 220° |
| 2026-05-08 14:05 | -9.30146 | -36.70304 | 36062 ft | 431 kts | 220° |
| 2026-05-08 14:05 | -9.34980 | -36.73916 | 36059 ft | 431 kts | 220° |
| 2026-05-08 14:06 | -9.39824 | -36.77534 | 36053 ft | 431 kts | 219° |
| 2026-05-08 14:06 | -9.44665 | -36.81143 | 36056 ft | 431 kts | 219° |
| 2026-05-08 14:07 | -9.49480 | -36.84737 | 36058 ft | 431 kts | 219° |
| 2026-05-08 14:07 | -9.54314 | -36.88345 | 36056 ft | 431 kts | 219° |
| 2026-05-08 14:08 | -9.59113 | -36.91940 | 36052 ft | 431 kts | 219° |
| 2026-05-08 14:08 | -9.63945 | -36.95557 | 36050 ft | 431 kts | 219° |
| 2026-05-08 14:09 | -9.68775 | -36.99169 | 36066 ft | 431 kts | 219° |
| 2026-05-08 14:09 | -9.73600 | -37.02784 | 36058 ft | 431 kts | 219° |
| 2026-05-08 14:10 | -9.78343 | -37.06446 | 36052 ft | 430 kts | 220° |
| 2026-05-08 14:10 | -9.83078 | -37.10165 | 36053 ft | 430 kts | 220° |
| 2026-05-08 14:11 | -9.87784 | -37.13860 | 36054 ft | 429 kts | 220° |
| 2026-05-08 14:11 | -9.92556 | -37.17518 | 36054 ft | 430 kts | 219° |
| 2026-05-08 14:12 | -9.97399 | -37.21110 | 36062 ft | 430 kts | 219° |
| 2026-05-08 14:12 | -10.02207 | -37.24672 | 36050 ft | 430 kts | 219° |
| 2026-05-08 14:13 | -10.07022 | -37.28270 | 36051 ft | 429 kts | 219° |
| 2026-05-08 14:13 | -10.11829 | -37.31883 | 36064 ft | 429 kts | 219° |
| 2026-05-08 14:14 | -10.16604 | -37.35475 | 36051 ft | 429 kts | 219° |
| 2026-05-08 14:14 | -10.21423 | -37.39091 | 36061 ft | 429 kts | 219° |
| 2026-05-08 14:15 | -10.26227 | -37.42700 | 36061 ft | 429 kts | 219° |
| 2026-05-08 14:15 | -10.31000 | -37.46283 | 36057 ft | 429 kts | 219° |
| 2026-05-08 14:16 | -10.35797 | -37.49889 | 36055 ft | 429 kts | 219° |
| 2026-05-08 14:16 | -10.40600 | -37.53502 | 36059 ft | 429 kts | 219° |
| 2026-05-08 14:17 | -10.45406 | -37.57112 | 36053 ft | 429 kts | 219° |
| 2026-05-08 14:17 | -10.50171 | -37.60705 | 36063 ft | 429 kts | 219° |
| 2026-05-08 14:18 | -10.54966 | -37.64325 | 36063 ft | 428 kts | 219° |
| 2026-05-08 14:18 | -10.59750 | -37.67948 | 36061 ft | 428 kts | 219° |
| 2026-05-08 14:19 | -10.64531 | -37.71568 | 36070 ft | 428 kts | 219° |
| 2026-05-08 14:19 | -10.69276 | -37.75163 | 36062 ft | 428 kts | 219° |
| 2026-05-08 14:20 | -10.74058 | -37.78780 | 36079 ft | 428 kts | 218° |
| 2026-05-08 14:20 | -10.78842 | -37.82397 | 36075 ft | 427 kts | 218° |
| 2026-05-08 14:21 | -10.83581 | -37.85985 | 36076 ft | 427 kts | 218° |
| 2026-05-08 14:21 | -10.88345 | -37.89601 | 36072 ft | 426 kts | 218° |
| 2026-05-08 14:22 | -10.93107 | -37.93215 | 36072 ft | 426 kts | 218° |
| 2026-05-08 14:22 | -10.97843 | -37.96808 | 36072 ft | 426 kts | 218° |
| 2026-05-08 14:23 | -11.02609 | -38.00430 | 36079 ft | 426 kts | 218° |
| 2026-05-08 14:23 | -11.07359 | -38.04043 | 36080 ft | 425 kts | 218° |
| 2026-05-08 14:24 | -11.12066 | -38.07622 | 36080 ft | 425 kts | 218° |
| 2026-05-08 14:24 | -11.16812 | -38.11222 | 36080 ft | 424 kts | 218° |
| 2026-05-08 14:25 | -11.21524 | -38.14800 | 36077 ft | 424 kts | 218° |
| 2026-05-08 14:25 | -11.26263 | -38.18403 | 36083 ft | 424 kts | 218° |
| 2026-05-08 14:26 | -11.30986 | -38.21996 | 36087 ft | 423 kts | 217° |
| 2026-05-08 14:26 | -11.35699 | -38.25585 | 36083 ft | 422 kts | 217° |
| 2026-05-08 14:27 | -11.40380 | -38.29155 | 36082 ft | 422 kts | 217° |
| 2026-05-08 14:27 | -11.45093 | -38.32742 | 36080 ft | 422 kts | 217° |
| 2026-05-08 14:28 | -11.49796 | -38.36323 | 36080 ft | 422 kts | 217° |
| 2026-05-08 14:28 | -11.54496 | -38.39918 | 36089 ft | 421 kts | 217° |
| 2026-05-08 14:29 | -11.59158 | -38.43490 | 36083 ft | 421 kts | 217° |
| 2026-05-08 14:29 | -11.63848 | -38.47092 | 36080 ft | 421 kts | 217° |
| 2026-05-08 14:30 | -11.68488 | -38.50659 | 36079 ft | 421 kts | 217° |
| 2026-05-08 14:30 | -11.73173 | -38.54244 | 36080 ft | 421 kts | 217° |
| 2026-05-08 14:31 | -11.77873 | -38.57820 | 36084 ft | 420 kts | 217° |
| 2026-05-08 14:31 | -11.82541 | -38.61378 | 36083 ft | 420 kts | 216° |
| 2026-05-08 14:32 | -11.89562 | -38.66752 | 36082 ft | 420 kts | 216° |
| 2026-05-08 14:32 | -11.94248 | -38.70332 | 36074 ft | 420 kts | 216° |
| 2026-05-08 14:33 | -11.98941 | -38.73911 | 36075 ft | 420 kts | 216° |
| 2026-05-08 14:33 | -12.03604 | -38.77467 | 36075 ft | 420 kts | 216° |
| 2026-05-08 14:34 | -12.08300 | -38.81056 | 36076 ft | 421 kts | 216° |
| 2026-05-08 14:34 | -12.12987 | -38.84646 | 36076 ft | 420 kts | 216° |
| 2026-05-08 14:35 | -12.17638 | -38.88208 | 36076 ft | 420 kts | 216° |
| 2026-05-08 14:35 | -12.22336 | -38.91801 | 36077 ft | 421 kts | 216° |
| 2026-05-08 14:36 | -12.27003 | -38.95365 | 36078 ft | 421 kts | 216° |
| 2026-05-08 14:36 | -12.31688 | -38.98951 | 36088 ft | 420 kts | 216° |
| 2026-05-08 14:37 | -12.36379 | -39.02553 | 36087 ft | 420 kts | 216° |
| 2026-05-08 14:37 | -12.41031 | -39.06134 | 36086 ft | 420 kts | 216° |
| 2026-05-08 14:38 | -12.45715 | -39.09733 | 36086 ft | 420 kts | 216° |
| 2026-05-08 14:38 | -12.50365 | -39.13299 | 36082 ft | 420 kts | 216° |
| 2026-05-08 14:39 | -12.55041 | -39.16886 | 36092 ft | 420 kts | 216° |
| 2026-05-08 14:39 | -12.59716 | -39.20473 | 36091 ft | 420 kts | 216° |
| 2026-05-08 14:40 | -12.64393 | -39.24064 | 36089 ft | 419 kts | 216° |
| 2026-05-08 14:40 | -12.69013 | -39.27665 | 36090 ft | 419 kts | 217° |
| 2026-05-08 14:41 | -12.73621 | -39.31333 | 36086 ft | 419 kts | 217° |
| 2026-05-08 14:41 | -12.78228 | -39.35000 | 36102 ft | 419 kts | 217° |
| 2026-05-08 14:42 | -12.82847 | -39.38659 | 36091 ft | 419 kts | 217° |
| 2026-05-08 14:42 | -12.87428 | -39.42286 | 36091 ft | 418 kts | 217° |
| 2026-05-08 14:43 | -12.92041 | -39.45938 | 36093 ft | 418 kts | 217° |
| 2026-05-08 14:43 | -12.96657 | -39.49598 | 36095 ft | 418 kts | 217° |
| 2026-05-08 14:44 | -13.01265 | -39.53251 | 36096 ft | 418 kts | 217° |
| 2026-05-08 14:44 | -13.05849 | -39.56887 | 36102 ft | 418 kts | 217° |
| 2026-05-08 14:45 | -13.10448 | -39.60541 | 36103 ft | 418 kts | 217° |
| 2026-05-08 14:45 | -13.15058 | -39.64201 | 36102 ft | 418 kts | 217° |
| 2026-05-08 14:46 | -13.19630 | -39.67836 | 36110 ft | 419 kts | 217° |
| 2026-05-08 14:46 | -13.24307 | -39.71551 | 36106 ft | 431 kts | 217° |
| 2026-05-08 14:47 | -13.29118 | -39.75375 | 36104 ft | 441 kts | 217° |
| 2026-05-08 14:47 | -13.33994 | -39.79219 | 36106 ft | 446 kts | 217° |
| 2026-05-08 14:48 | -13.38938 | -39.83088 | 36110 ft | 446 kts | 217° |
| 2026-05-08 14:48 | -13.43049 | -39.86317 | 36116 ft | 447 kts | 217° |
| 2026-05-08 14:49 | -13.48791 | -39.90833 | 36112 ft | 447 kts | 217° |
| 2026-05-08 14:49 | -13.52927 | -39.94087 | 36118 ft | 447 kts | 217° |
| 2026-05-08 14:50 | -13.57867 | -39.97978 | 36121 ft | 447 kts | 217° |
| 2026-05-08 14:50 | -13.62775 | -40.01855 | 36122 ft | 447 kts | 217° |
| 2026-05-08 14:51 | -13.67699 | -40.05770 | 36109 ft | 447 kts | 217° |
| 2026-05-08 14:51 | -13.72621 | -40.09689 | 36108 ft | 447 kts | 217° |
| 2026-05-08 14:52 | -13.79977 | -40.15529 | 36122 ft | 447 kts | 217° |
| 2026-05-08 14:53 | -13.84909 | -40.19439 | 36118 ft | 447 kts | 217° |
| 2026-05-08 14:53 | -13.89834 | -40.23357 | 36122 ft | 447 kts | 217° |
| 2026-05-08 14:54 | -13.94758 | -40.27271 | 36107 ft | 447 kts | 217° |
| 2026-05-08 14:54 | -13.99659 | -40.31171 | 36114 ft | 447 kts | 217° |
| 2026-05-08 14:55 | -14.04579 | -40.35089 | 36120 ft | 447 kts | 217° |
| 2026-05-08 14:55 | -14.09509 | -40.39025 | 36114 ft | 447 kts | 217° |
| 2026-05-08 14:56 | -14.14426 | -40.42944 | 36119 ft | 447 kts | 217° |
| 2026-05-08 14:56 | -14.19316 | -40.46841 | 36119 ft | 447 kts | 217° |
| 2026-05-08 14:57 | -14.24228 | -40.50766 | 36120 ft | 447 kts | 217° |
| 2026-05-08 14:57 | -14.29162 | -40.54707 | 36120 ft | 447 kts | 217° |
| 2026-05-08 14:58 | -14.34061 | -40.58618 | 36118 ft | 447 kts | 217° |
| 2026-05-08 14:58 | -14.38979 | -40.62548 | 36119 ft | 447 kts | 217° |
| 2026-05-08 14:59 | -14.43898 | -40.66493 | 36122 ft | 447 kts | 217° |
| 2026-05-08 14:59 | -14.51282 | -40.72408 | 36120 ft | 447 kts | 217° |
| 2026-05-08 15:00 | -14.56164 | -40.76320 | 36116 ft | 447 kts | 217° |
| 2026-05-08 15:00 | -14.61094 | -40.80266 | 36128 ft | 447 kts | 217° |
| 2026-05-08 15:01 | -14.65985 | -40.84186 | 36118 ft | 447 kts | 217° |
| 2026-05-08 15:01 | -14.70900 | -40.88139 | 36129 ft | 447 kts | 217° |
| 2026-05-08 15:02 | -14.75823 | -40.92093 | 36124 ft | 447 kts | 217° |
| 2026-05-08 15:02 | -14.80709 | -40.96017 | 36120 ft | 447 kts | 217° |
| 2026-05-08 15:03 | -14.85637 | -40.99982 | 36120 ft | 447 kts | 217° |
| 2026-05-08 15:03 | -14.90524 | -41.03913 | 36132 ft | 447 kts | 217° |
| 2026-05-08 15:04 | -14.95436 | -41.07866 | 36124 ft | 447 kts | 217° |
| 2026-05-08 15:04 | -15.00351 | -41.11819 | 36126 ft | 447 kts | 217° |
| 2026-05-08 15:05 | -15.05266 | -41.15784 | 36129 ft | 447 kts | 217° |
| 2026-05-08 15:05 | -15.10187 | -41.19747 | 36126 ft | 447 kts | 217° |
| 2026-05-08 15:06 | -15.15066 | -41.23684 | 36137 ft | 447 kts | 217° |
| 2026-05-08 15:06 | -15.19980 | -41.27659 | 36129 ft | 447 kts | 217° |
| 2026-05-08 15:07 | -15.24896 | -41.31630 | 36129 ft | 447 kts | 217° |
| 2026-05-08 15:07 | -15.29780 | -41.35576 | 36132 ft | 447 kts | 217° |
| 2026-05-08 15:08 | -15.33863 | -41.38877 | 36132 ft | 447 kts | 217° |
| 2026-05-08 15:08 | -15.39605 | -41.43522 | 36138 ft | 448 kts | 217° |
| 2026-05-08 15:09 | -15.44485 | -41.47480 | 36140 ft | 448 kts | 217° |
| 2026-05-08 15:09 | -15.49403 | -41.51472 | 36134 ft | 448 kts | 217° |
| 2026-05-08 15:10 | -15.54318 | -41.55450 | 36137 ft | 448 kts | 217° |
| 2026-05-08 15:10 | -15.59206 | -41.59405 | 36136 ft | 448 kts | 218° |
| 2026-05-08 15:11 | -15.64122 | -41.63405 | 36141 ft | 448 kts | 218° |
| 2026-05-08 15:11 | -15.69038 | -41.67404 | 36131 ft | 449 kts | 218° |
| 2026-05-08 15:12 | -15.73929 | -41.71384 | 36140 ft | 449 kts | 218° |
| 2026-05-08 15:12 | -15.78842 | -41.75387 | 36150 ft | 449 kts | 218° |
| 2026-05-08 15:13 | -15.83741 | -41.79375 | 36139 ft | 449 kts | 218° |
| 2026-05-08 15:13 | -15.88655 | -41.83373 | 36148 ft | 448 kts | 218° |
| 2026-05-08 15:14 | -15.93566 | -41.87373 | 36147 ft | 448 kts | 218° |
| 2026-05-08 15:14 | -15.98486 | -41.91380 | 36133 ft | 448 kts | 218° |
| 2026-05-08 15:15 | -16.03399 | -41.95386 | 36133 ft | 448 kts | 218° |
| 2026-05-08 15:15 | -16.08269 | -41.99364 | 36127 ft | 448 kts | 218° |
| 2026-05-08 15:16 | -16.13166 | -42.03373 | 36132 ft | 447 kts | 218° |
| 2026-05-08 15:16 | -16.18042 | -42.07368 | 36138 ft | 447 kts | 218° |
| 2026-05-08 15:17 | -16.22951 | -42.11370 | 36123 ft | 447 kts | 218° |
| 2026-05-08 15:17 | -16.27844 | -42.15368 | 36128 ft | 447 kts | 218° |
| 2026-05-08 15:18 | -16.32726 | -42.19372 | 36125 ft | 447 kts | 218° |
| 2026-05-08 15:18 | -16.37609 | -42.23378 | 36125 ft | 446 kts | 218° |
| 2026-05-08 15:19 | -16.42461 | -42.27353 | 36118 ft | 446 kts | 218° |
| 2026-05-08 15:19 | -16.47337 | -42.31356 | 36120 ft | 445 kts | 218° |
| 2026-05-08 15:20 | -16.52185 | -42.35340 | 36127 ft | 445 kts | 218° |
| 2026-05-08 15:20 | -16.57052 | -42.39346 | 36126 ft | 445 kts | 218° |
| 2026-05-08 15:21 | -16.61910 | -42.43354 | 36122 ft | 445 kts | 219° |
| 2026-05-08 15:21 | -16.66754 | -42.47358 | 36124 ft | 444 kts | 218° |
| 2026-05-08 15:22 | -16.71601 | -42.51354 | 36124 ft | 444 kts | 219° |
| 2026-05-08 15:22 | -16.76419 | -42.55315 | 36124 ft | 443 kts | 218° |
| 2026-05-08 15:23 | -16.81265 | -42.59302 | 36128 ft | 443 kts | 218° |
| 2026-05-08 15:23 | -16.86110 | -42.63295 | 36122 ft | 443 kts | 219° |
| 2026-05-08 15:24 | -16.90945 | -42.67295 | 36125 ft | 442 kts | 219° |
| 2026-05-08 15:24 | -16.95737 | -42.71262 | 36143 ft | 442 kts | 219° |
| 2026-05-08 15:25 | -17.00569 | -42.75258 | 36127 ft | 442 kts | 219° |
| 2026-05-08 15:25 | -17.05310 | -42.79171 | 36125 ft | 442 kts | 219° |
| 2026-05-08 15:26 | -17.10101 | -42.83144 | 36120 ft | 441 kts | 219° |
| 2026-05-08 15:26 | -17.14916 | -42.87138 | 36128 ft | 441 kts | 219° |
| 2026-05-08 15:27 | -17.19734 | -42.91128 | 36131 ft | 441 kts | 219° |
| 2026-05-08 15:27 | -17.24504 | -42.95095 | 36131 ft | 440 kts | 219° |
| 2026-05-08 15:28 | -17.29316 | -42.99092 | 36126 ft | 440 kts | 219° |
| 2026-05-08 15:28 | -17.34118 | -43.03073 | 36128 ft | 440 kts | 219° |
| 2026-05-08 15:29 | -17.38896 | -43.07037 | 36127 ft | 440 kts | 219° |
| 2026-05-08 15:29 | -17.43694 | -43.11037 | 36126 ft | 440 kts | 219° |
| 2026-05-08 15:30 | -17.48460 | -43.15012 | 36122 ft | 440 kts | 219° |
| 2026-05-08 15:30 | -17.53252 | -43.19006 | 36122 ft | 440 kts | 219° |
| 2026-05-08 15:31 | -17.58045 | -43.23001 | 36124 ft | 440 kts | 219° |
| 2026-05-08 15:31 | -17.62843 | -43.26997 | 36122 ft | 440 kts | 219° |
| 2026-05-08 15:32 | -17.67616 | -43.30992 | 36123 ft | 440 kts | 219° |
| 2026-05-08 15:32 | -17.72395 | -43.34993 | 36121 ft | 440 kts | 219° |
| 2026-05-08 15:33 | -17.77165 | -43.38970 | 36128 ft | 440 kts | 219° |
| 2026-05-08 15:33 | -17.81961 | -43.42971 | 36126 ft | 440 kts | 219° |
| 2026-05-08 15:34 | -17.86742 | -43.46986 | 36123 ft | 440 kts | 219° |
| 2026-05-08 15:34 | -17.91522 | -43.50995 | 36130 ft | 440 kts | 219° |
| 2026-05-08 15:35 | -17.96288 | -43.54980 | 36134 ft | 440 kts | 219° |
| 2026-05-08 15:35 | -18.01072 | -43.58989 | 36131 ft | 440 kts | 219° |
| 2026-05-08 15:36 | -18.05046 | -43.62333 | 36131 ft | 440 kts | 219° |
| 2026-05-08 15:36 | -18.10616 | -43.67019 | 36130 ft | 440 kts | 220° |
| 2026-05-08 15:37 | -18.15401 | -43.71046 | 36133 ft | 440 kts | 220° |
| 2026-05-08 15:37 | -18.20186 | -43.75072 | 36129 ft | 440 kts | 220° |
| 2026-05-08 15:38 | -18.24966 | -43.79095 | 36122 ft | 440 kts | 220° |
| 2026-05-08 15:38 | -18.29720 | -43.83101 | 36109 ft | 440 kts | 220° |
| 2026-05-08 15:39 | -18.33689 | -43.86451 | 36106 ft | 440 kts | 220° |
| 2026-05-08 15:39 | -18.39281 | -43.91175 | 36101 ft | 440 kts | 220° |
| 2026-05-08 15:40 | -18.43259 | -43.94535 | 36098 ft | 440 kts | 220° |
| 2026-05-08 15:40 | -18.48011 | -43.98550 | 36098 ft | 440 kts | 220° |
| 2026-05-08 15:41 | -18.52799 | -44.02589 | 36091 ft | 440 kts | 220° |
| 2026-05-08 15:41 | -18.57579 | -44.06625 | 36091 ft | 440 kts | 220° |
| 2026-05-08 15:42 | -18.62362 | -44.10674 | 36080 ft | 441 kts | 220° |
| 2026-05-08 15:42 | -18.67115 | -44.14711 | 36079 ft | 441 kts | 220° |
| 2026-05-08 15:43 | -18.71908 | -44.18770 | 36076 ft | 441 kts | 220° |
| 2026-05-08 15:43 | -18.76693 | -44.22824 | 36071 ft | 441 kts | 220° |
| 2026-05-08 15:44 | -18.81439 | -44.26862 | 36071 ft | 441 kts | 220° |
| 2026-05-08 15:44 | -18.86214 | -44.30937 | 36072 ft | 441 kts | 220° |
| 2026-05-08 15:45 | -18.90999 | -44.35014 | 36074 ft | 441 kts | 220° |
| 2026-05-08 15:45 | -18.95751 | -44.39059 | 36081 ft | 441 kts | 220° |
| 2026-05-08 15:46 | -19.00529 | -44.43144 | 36073 ft | 441 kts | 220° |
| 2026-05-08 15:46 | -19.05274 | -44.47201 | 36073 ft | 441 kts | 220° |
| 2026-05-08 15:47 | -19.10064 | -44.51298 | 36073 ft | 441 kts | 220° |
| 2026-05-08 15:47 | -19.14817 | -44.55351 | 36076 ft | 441 kts | 220° |
| 2026-05-08 15:48 | -19.22000 | -44.61482 | 36071 ft | 442 kts | 220° |
| 2026-05-08 15:49 | -19.26785 | -44.65583 | 36068 ft | 442 kts | 221° |
| 2026-05-08 15:49 | -19.31533 | -44.69662 | 36068 ft | 442 kts | 221° |
| 2026-05-08 15:50 | -19.36331 | -44.73765 | 36071 ft | 442 kts | 220° |
| 2026-05-08 15:50 | -19.41124 | -44.77867 | 36072 ft | 442 kts | 221° |
| 2026-05-08 15:51 | -19.45888 | -44.81945 | 36068 ft | 443 kts | 221° |
| 2026-05-08 15:51 | -19.50684 | -44.86065 | 36066 ft | 443 kts | 221° |
| 2026-05-08 15:52 | -19.55436 | -44.90159 | 36068 ft | 443 kts | 221° |
| 2026-05-08 15:52 | -19.60221 | -44.94286 | 36067 ft | 443 kts | 221° |
| 2026-05-08 15:53 | -19.65011 | -44.98417 | 36070 ft | 443 kts | 221° |
| 2026-05-08 15:53 | -19.69769 | -45.02528 | 36069 ft | 443 kts | 221° |
| 2026-05-08 15:54 | -19.74565 | -45.06675 | 36068 ft | 443 kts | 221° |
| 2026-05-08 15:54 | -19.79352 | -45.10820 | 36064 ft | 444 kts | 221° |
| 2026-05-08 15:55 | -19.84136 | -45.14973 | 36068 ft | 444 kts | 221° |
| 2026-05-08 15:55 | -19.91294 | -45.21198 | 36068 ft | 445 kts | 221° |
| 2026-05-08 15:56 | -19.96064 | -45.25337 | 36065 ft | 445 kts | 221° |
| 2026-05-08 15:56 | -20.00885 | -45.29522 | 36067 ft | 444 kts | 221° |
| 2026-05-08 15:57 | -20.05642 | -45.33657 | 36068 ft | 445 kts | 221° |
| 2026-05-08 15:57 | -20.10454 | -45.37841 | 36075 ft | 445 kts | 221° |
| 2026-05-08 15:58 | -20.15250 | -45.42012 | 36073 ft | 445 kts | 221° |
| 2026-05-08 15:58 | -20.20015 | -45.46154 | 36071 ft | 445 kts | 221° |
| 2026-05-08 15:59 | -20.24809 | -45.50330 | 36072 ft | 445 kts | 222° |
| 2026-05-08 15:59 | -20.29596 | -45.54511 | 36069 ft | 445 kts | 222° |
| 2026-05-08 16:00 | -20.34362 | -45.58675 | 36069 ft | 444 kts | 222° |
| 2026-05-08 16:00 | -20.39137 | -45.62856 | 36075 ft | 444 kts | 222° |
| 2026-05-08 16:01 | -20.43921 | -45.67036 | 36068 ft | 444 kts | 222° |
| 2026-05-08 16:01 | -20.48705 | -45.71219 | 36060 ft | 444 kts | 222° |
| 2026-05-08 16:02 | -20.53460 | -45.75400 | 36062 ft | 444 kts | 222° |
| 2026-05-08 16:02 | -20.58244 | -45.79598 | 36062 ft | 445 kts | 222° |
| 2026-05-08 16:03 | -20.63024 | -45.83796 | 36062 ft | 444 kts | 222° |
| 2026-05-08 16:03 | -20.67778 | -45.87975 | 36061 ft | 445 kts | 223° |
| 2026-05-08 16:04 | -20.72565 | -45.92184 | 36071 ft | 445 kts | 223° |
| 2026-05-08 16:04 | -20.77351 | -45.96397 | 36066 ft | 445 kts | 223° |
| 2026-05-08 16:05 | -20.82106 | -46.00586 | 36062 ft | 445 kts | 223° |
| 2026-05-08 16:05 | -20.86871 | -46.04785 | 36058 ft | 445 kts | 223° |
| 2026-05-08 16:06 | -20.91651 | -46.09006 | 36055 ft | 445 kts | 223° |
| 2026-05-08 16:06 | -20.96491 | -46.13162 | 36053 ft | 448 kts | 217° |
| 2026-05-08 16:07 | -21.02213 | -46.15927 | 36052 ft | 456 kts | 202° |
| 2026-05-08 16:07 | -21.08245 | -46.18058 | 36059 ft | 456 kts | 203° |
| 2026-05-08 16:08 | -21.14243 | -46.20188 | 36054 ft | 457 kts | 203° |
| 2026-05-08 16:08 | -21.20298 | -46.22318 | 36054 ft | 458 kts | 202° |
| 2026-05-08 16:09 | -21.25348 | -46.24036 | 36053 ft | 458 kts | 202° |
| 2026-05-08 16:09 | -21.32478 | -46.26428 | 36054 ft | 458 kts | 202° |
| 2026-05-08 16:10 | -21.38521 | -46.28473 | 36052 ft | 458 kts | 202° |
| 2026-05-08 16:10 | -21.44610 | -46.30552 | 36055 ft | 458 kts | 202° |
| 2026-05-08 16:11 | -21.50649 | -46.32623 | 36060 ft | 458 kts | 202° |
| 2026-05-08 16:11 | -21.56723 | -46.34705 | 36061 ft | 458 kts | 202° |
| 2026-05-08 16:12 | -21.62810 | -46.36781 | 36065 ft | 458 kts | 202° |
| 2026-05-08 16:12 | -21.65811 | -46.37806 | 35853 ft | 456 kts | 202° |
| 2026-05-08 16:12 | -21.68794 | -46.38846 | 35234 ft | 443 kts | 203° |
| 2026-05-08 16:13 | -21.71664 | -46.39879 | 34740 ft | 427 kts | 204° |
| 2026-05-08 16:13 | -21.74433 | -46.40901 | 34230 ft | 417 kts | 204° |
| 2026-05-08 16:13 | -21.77157 | -46.41923 | 33669 ft | 415 kts | 204° |
| 2026-05-08 16:13 | -21.79883 | -46.42948 | 33171 ft | 412 kts | 204° |
| 2026-05-08 16:14 | -21.82585 | -46.43956 | 32670 ft | 409 kts | 204° |
| 2026-05-08 16:14 | -21.85269 | -46.44949 | 32181 ft | 406 kts | 204° |
| 2026-05-08 16:14 | -21.87909 | -46.45921 | 31700 ft | 404 kts | 204° |
| 2026-05-08 16:14 | -21.90570 | -46.46899 | 31219 ft | 402 kts | 204° |
| 2026-05-08 16:15 | -21.93233 | -46.47880 | 30755 ft | 411 kts | 204° |
| 2026-05-08 16:15 | -21.95987 | -46.48905 | 30263 ft | 436 kts | 204° |
| 2026-05-08 16:15 | -21.98940 | -46.50007 | 29701 ft | 458 kts | 203° |
| 2026-05-08 16:15 | -22.01979 | -46.51130 | 29194 ft | 464 kts | 203° |
| 2026-05-08 16:16 | -22.05039 | -46.52248 | 28684 ft | 463 kts | 202° |
| 2026-05-08 16:16 | -22.08087 | -46.53357 | 28185 ft | 461 kts | 202° |
| 2026-05-08 16:16 | -22.11118 | -46.54463 | 27679 ft | 458 kts | 203° |
| 2026-05-08 16:16 | -22.14128 | -46.55568 | 27178 ft | 455 kts | 203° |
| 2026-05-08 16:17 | -22.17117 | -46.56674 | 26655 ft | 453 kts | 203° |
| 2026-05-08 16:17 | -22.19086 | -46.57406 | 26301 ft | 451 kts | 203° |
| 2026-05-08 16:17 | -22.23050 | -46.58875 | 25584 ft | 449 kts | 203° |
| 2026-05-08 16:17 | -22.25994 | -46.59965 | 25048 ft | 445 kts | 203° |
| 2026-05-08 16:18 | -22.28874 | -46.61061 | 24221 ft | 442 kts | 205° |
| 2026-05-08 16:18 | -22.31722 | -46.62252 | 23123 ft | 435 kts | 206° |
| 2026-05-08 16:18 | -22.34505 | -46.63506 | 22241 ft | 430 kts | 207° |
| 2026-05-08 16:18 | -22.37242 | -46.64783 | 21368 ft | 426 kts | 207° |
| 2026-05-08 16:19 | -22.39955 | -46.66059 | 20522 ft | 423 kts | 207° |
| 2026-05-08 16:19 | -22.42646 | -46.67308 | 19691 ft | 419 kts | 206° |
| 2026-05-08 16:19 | -22.45320 | -46.68531 | 18902 ft | 416 kts | 206° |
| 2026-05-08 16:19 | -22.47984 | -46.69735 | 18094 ft | 413 kts | 205° |
| 2026-05-08 16:20 | -22.50599 | -46.70906 | 17209 ft | 409 kts | 205° |
| 2026-05-08 16:20 | -22.53223 | -46.72079 | 16457 ft | 409 kts | 205° |
| 2026-05-08 16:20 | -22.55855 | -46.73257 | 15814 ft | 409 kts | 205° |
| 2026-05-08 16:20 | -22.58477 | -46.74433 | 15224 ft | 407 kts | 205° |
| 2026-05-08 16:21 | -22.61089 | -46.75606 | 14631 ft | 401 kts | 205° |
| 2026-05-08 16:21 | -22.63612 | -46.76735 | 14059 ft | 385 kts | 206° |
| 2026-05-08 16:21 | -22.66044 | -46.77824 | 13436 ft | 371 kts | 206° |
| 2026-05-08 16:21 | -22.68401 | -46.78883 | 12829 ft | 362 kts | 206° |
| 2026-05-08 16:22 | -22.70711 | -46.79925 | 12217 ft | 361 kts | 206° |
| 2026-05-08 16:22 | -22.73016 | -46.80971 | 11602 ft | 356 kts | 206° |
| 2026-05-08 16:22 | -22.75286 | -46.82000 | 11003 ft | 352 kts | 206° |
| 2026-05-08 16:22 | -22.77510 | -46.83010 | 10447 ft | 349 kts | 206° |
| 2026-05-08 16:23 | -22.79698 | -46.83999 | 10200 ft | 329 kts | 206° |
| 2026-05-08 16:23 | -22.81773 | -46.84932 | 9970 ft | 316 kts | 206° |
| 2026-05-08 16:23 | -22.83743 | -46.85817 | 9845 ft | 304 kts | 206° |
| 2026-05-08 16:23 | -22.85692 | -46.86696 | 9721 ft | 301 kts | 206° |
| 2026-05-08 16:24 | -22.87628 | -46.87574 | 9583 ft | 300 kts | 206° |
| 2026-05-08 16:24 | -22.89562 | -46.88453 | 9457 ft | 301 kts | 207° |
| 2026-05-08 16:24 | -22.91485 | -46.89327 | 9331 ft | 298 kts | 207° |
| 2026-05-08 16:24 | -22.93366 | -46.90179 | 9201 ft | 287 kts | 207° |
| 2026-05-08 16:25 | -22.95183 | -46.91000 | 9078 ft | 278 kts | 207° |
| 2026-05-08 16:25 | -22.96937 | -46.91794 | 8775 ft | 276 kts | 207° |
| 2026-05-08 16:25 | -22.98713 | -46.92603 | 8400 ft | 278 kts | 207° |
| 2026-05-08 16:25 | -23.00503 | -46.93418 | 8010 ft | 276 kts | 207° |
| 2026-05-08 16:26 | -23.02186 | -46.94315 | 7639 ft | 262 kts | 220° |
| 2026-05-08 16:26 | -23.03600 | -46.95485 | 7261 ft | 252 kts | 224° |
| 2026-05-08 16:26 | -23.04972 | -46.96649 | 6874 ft | 248 kts | 224° |
| 2026-05-08 16:26 | -23.06322 | -46.97791 | 6506 ft | 244 kts | 225° |
| 2026-05-08 16:27 | -23.07650 | -46.98930 | 6112 ft | 241 kts | 229° |
| 2026-05-08 16:27 | -23.08548 | -47.00327 | 5724 ft | 214 kts | 261° |
| 2026-05-08 16:27 | -23.08657 | -47.01815 | 5408 ft | 187 kts | 286° |
| 2026-05-08 16:27 | -23.08208 | -47.03018 | 5103 ft | 164 kts | 308° |
| 2026-05-08 16:28 | -23.07537 | -47.03954 | 4781 ft | 151 kts | 311° |
| 2026-05-08 16:28 | -23.06900 | -47.04842 | 4471 ft | 146 kts | 310° |
| 2026-05-08 16:28 | -23.06283 | -47.05704 | 4207 ft | 142 kts | 310° |
| 2026-05-08 16:28 | -23.05695 | -47.06526 | 3962 ft | 138 kts | 310° |
| 2026-05-08 16:29 | -23.05107 | -47.07347 | 3720 ft | 137 kts | 310° |
| 2026-05-08 16:29 | -23.04523 | -47.08166 | 3492 ft | 136 kts | 311° |
| 2026-05-08 16:29 | -23.03954 | -47.08964 | 3248 ft | 132 kts | 313° |
| 2026-05-08 16:29 | -23.03390 | -47.09753 | 3014 ft | 133 kts | 313° |
| 2026-05-08 16:30 | -23.02832 | -47.10531 | 2746 ft | 130 kts | 313° |
| 2026-05-08 16:30 | -23.02274 | -47.11325 | 2479 ft | 135 kts | 313° |
| 2026-05-08 16:30 | -23.01690 | -47.12136 | 2245 ft | 136 kts | 317° |
| 2026-05-08 16:30 | -23.01129 | -47.12900 | 2164 ft | 118 kts | 310° |
| 2026-05-08 16:31 | -23.00726 | -47.13468 | 2162 ft | 70 kts | 308° |
| 2026-05-08 16:31 | -23.00513 | -47.13765 | 2157 ft | 38 kts | 308° |
| 2026-05-08 16:31 | -23.00368 | -47.13968 | 2164 ft | 33 kts | 307° |
| 2026-05-08 16:31 | -23.00228 | -47.14162 | 2161 ft | 33 kts | 309° |
| 2026-05-08 16:32 | -23.00083 | -47.14365 | 2166 ft | 28 kts | 308° |
| 2026-05-08 16:32 | -23.00012 | -47.14465 | 2165 ft | 26 kts | 308° |
| 2026-05-08 16:32 | -22.99996 | -47.14661 | 2165 ft | 6 kts | 228° |
| 2026-05-08 16:32 | -22.99997 | -47.14661 | 2166 ft | 0 kts | 228° |
| 2026-05-08 16:34 | -22.99998 | -47.14663 | 2166 ft | 2 kts | 228° |
| 2026-05-08 16:35 | -23.00033 | -47.14697 | 2166 ft | 12 kts | 219° |
| 2026-05-08 16:35 | -23.00137 | -47.14734 | 2162 ft | 18 kts | 167° |
| 2026-05-08 16:35 | -23.00230 | -47.14640 | 2162 ft | 16 kts | 129° |
| 2026-05-08 16:35 | -23.00273 | -47.14638 | 2166 ft | 7 kts | 207° |
| 2026-05-08 16:36 | -23.00320 | -47.14676 | 2163 ft | 9 kts | 218° |
| 2026-05-08 16:36 | -23.00377 | -47.14725 | 2168 ft | 11 kts | 218° |
| 2026-05-08 16:36 | -23.00404 | -47.14793 | 2169 ft | 9 kts | 257° |
| 2026-05-08 16:36 | -23.00436 | -47.14828 | 2163 ft | 0 kts | 218° |